createdAt,value
2023-10-10T00:01:44.300Z,102083.00
2023-10-10T00:04:14.203Z,102081.00
2023-10-10T00:06:41.655Z,102086.00
2023-10-10T00:09:12.385Z,102077.00
2023-10-10T00:11:46.601Z,102090.00
2023-10-10T00:14:24.233Z,102087.00
2023-10-10T00:16:56.225Z,102082.00
2023-10-10T00:19:23.216Z,102084.00
2023-10-10T00:21:51.908Z,102079.00
2023-10-10T00:24:22.329Z,102080.00
2023-10-10T00:26:49.095Z,102073.00
2023-10-10T00:29:18.374Z,102084.00
2023-10-10T00:31:48.949Z,102081.00
2023-10-10T00:34:16.736Z,102082.00
2023-10-10T00:36:52.705Z,102077.00
2023-10-10T00:39:19.754Z,102077.00
2023-10-10T00:41:52.580Z,102072.00
2023-10-10T00:44:20.702Z,102077.00
2023-10-10T00:46:52.982Z,102078.00
2023-10-10T00:49:24.784Z,102072.00
2023-10-10T00:52:02.452Z,102073.00
2023-10-10T00:54:33.115Z,102071.00
2023-10-10T00:57:00.949Z,102063.00
2023-10-10T00:59:44.006Z,102062.00
2023-10-10T01:02:17.289Z,102053.00
2023-10-10T01:04:56.476Z,102053.00
2023-10-10T01:07:24.296Z,102062.00
2023-10-10T01:09:57.872Z,102054.00
2023-10-10T01:12:40.719Z,102050.00
2023-10-10T01:15:26.434Z,102053.00
2023-10-10T01:17:56.089Z,102037.00
2023-10-10T01:20:38.068Z,102032.00
2023-10-10T01:23:05.326Z,102028.00
2023-10-10T01:25:34.825Z,102029.00
2023-10-10T01:28:03.931Z,102027.00
2023-10-10T01:30:49.627Z,102027.00
2023-10-10T01:33:17.023Z,102023.00
2023-10-10T01:35:46.958Z,102022.00
2023-10-10T01:38:28.909Z,102018.00
2023-10-10T01:40:59.483Z,102017.00
2023-10-10T01:43:26.431Z,102011.00
2023-10-10T01:46:10.797Z,102008.00
2023-10-10T01:48:45.101Z,102007.00
2023-10-10T01:51:16.308Z,101998.00
2023-10-10T01:53:46.116Z,102003.00
2023-10-10T01:56:13.517Z,101998.00
2023-10-10T01:58:41.994Z,102003.00
2023-10-10T02:01:17.764Z,101998.00
2023-10-10T02:03:44.733Z,101994.00
2023-10-10T02:06:23.604Z,101996.00
2023-10-10T02:08:52.805Z,102007.00
2023-10-10T02:11:23.240Z,102002.00
2023-10-10T02:13:50.174Z,101993.00
2023-10-10T02:16:19.030Z,101987.00
2023-10-10T02:18:46.653Z,101994.00
2023-10-10T02:21:32.843Z,101995.00
2023-10-10T02:24:22.406Z,101997.00
2023-10-10T02:26:52.969Z,101994.00
2023-10-10T02:29:34.309Z,101994.00
2023-10-10T02:32:12.332Z,101987.00
2023-10-10T02:34:39.096Z,101988.00
2023-10-10T02:37:31.761Z,101985.00
2023-10-10T02:40:13.575Z,101979.00
2023-10-10T02:42:40.416Z,101977.00
2023-10-10T02:45:07.822Z,101978.00
2023-10-10T02:47:34.623Z,101971.00
2023-10-10T02:50:17.011Z,101965.00
2023-10-10T02:52:47.114Z,101962.00
2023-10-10T02:55:34.819Z,101958.00
2023-10-10T02:58:09.798Z,101959.00
2023-10-10T03:00:39.001Z,101960.00
2023-10-10T03:03:12.528Z,101954.00
2023-10-10T03:05:40.993Z,101948.00
2023-10-10T03:08:20.334Z,101943.00
2023-10-10T03:10:55.600Z,101945.00
2023-10-10T03:13:32.064Z,101950.00
2023-10-10T03:16:21.409Z,101950.00
2023-10-10T03:19:03.523Z,101940.00
2023-10-10T03:21:48.652Z,101943.00
2023-10-10T03:24:42.095Z,101946.00
2023-10-10T03:27:17.266Z,101948.00
2023-10-10T03:29:51.468Z,101953.00
2023-10-10T03:32:21.204Z,101946.00
2023-10-10T03:35:22.014Z,101955.00
2023-10-10T03:38:05.906Z,101947.00
2023-10-10T03:40:51.185Z,101944.00
2023-10-10T03:43:36.395Z,101941.00
2023-10-10T03:46:22.169Z,101942.00
2023-10-10T03:49:07.655Z,101943.00
2023-10-10T03:51:53.133Z,101941.00
2023-10-10T03:54:38.541Z,101933.00
2023-10-10T03:57:23.972Z,101934.00
2023-10-10T04:00:09.329Z,101937.00
2023-10-10T04:02:54.702Z,101945.00
2023-10-10T04:05:39.662Z,101933.00
2023-10-10T04:08:25.136Z,101942.00
2023-10-10T04:11:10.342Z,101934.00
2023-10-10T04:13:55.558Z,101933.00
2023-10-10T04:16:40.886Z,101929.00
2023-10-10T04:19:26.265Z,101935.00
2023-10-10T04:22:11.061Z,101931.00
2023-10-10T04:24:57.699Z,101930.00
2023-10-10T04:27:43.862Z,101928.00
2023-10-10T04:30:29.196Z,101925.00
2023-10-10T04:33:14.753Z,101926.00
2023-10-10T04:36:02.903Z,101921.00
2023-10-10T04:38:48.044Z,101919.00
2023-10-10T04:41:33.604Z,101924.00
2023-10-10T04:44:19.103Z,101919.00
2023-10-10T04:47:04.799Z,101922.00
2023-10-10T04:49:50.243Z,101919.00
2023-10-10T04:52:35.412Z,101918.00
2023-10-10T04:55:20.519Z,101908.00
2023-10-10T04:58:05.999Z,101912.00
2023-10-10T05:00:51.518Z,101903.00
2023-10-10T05:03:36.956Z,101899.00
2023-10-10T05:06:22.627Z,101891.00
2023-10-10T05:09:08.043Z,101896.00
2023-10-10T05:11:53.308Z,101896.00
2023-10-10T05:14:38.491Z,101892.00
2023-10-10T05:17:23.906Z,101890.00
2023-10-10T05:20:09.497Z,101885.00
2023-10-10T05:22:54.933Z,101888.00
2023-10-10T05:25:24.864Z,101884.00
2023-10-10T05:27:53.932Z,101890.00
2023-10-10T05:30:24.634Z,101873.00
2023-10-10T05:33:07.234Z,101872.00
2023-10-10T05:35:38.957Z,101865.00
2023-10-10T05:38:08.578Z,101862.00
2023-10-10T05:40:35.795Z,101858.00
2023-10-10T05:43:05.395Z,101857.00
2023-10-10T05:45:32.151Z,101851.00
2023-10-10T05:48:01.106Z,101857.00
2023-10-10T05:53:27.244Z,101864.00
2023-10-10T05:55:59.727Z,101864.00
2023-10-10T05:58:29.306Z,101871.00
2023-10-10T06:00:56.181Z,101869.00
2023-10-10T06:03:23.060Z,101862.00
2023-10-10T06:05:51.375Z,101878.00
2023-10-10T06:08:18.468Z,101873.00
2023-10-10T06:10:45.268Z,101872.00
2023-10-10T06:13:12.883Z,101870.00
2023-10-10T06:15:40.546Z,101878.00
2023-10-10T06:18:13.292Z,101874.00
2023-10-10T06:23:19.510Z,101863.00
2023-10-10T06:25:49.904Z,101871.00
2023-10-10T06:28:27.437Z,101880.00
2023-10-10T06:30:55.279Z,101873.00
2023-10-10T06:33:29.567Z,101865.00
2023-10-10T06:36:22.278Z,101873.00
2023-10-10T06:39:05.314Z,101871.00
2023-10-10T06:41:37.576Z,101870.00
2023-10-10T06:44:27.899Z,101860.00
2023-10-10T06:46:56.928Z,101863.00
2023-10-10T06:49:24.537Z,101870.00
2023-10-10T06:51:51.506Z,101870.00
2023-10-10T06:54:21.382Z,101870.00
2023-10-10T06:57:16.810Z,101862.00
2023-10-10T06:59:44.001Z,101869.00
2023-10-10T07:02:22.193Z,101870.00
2023-10-10T07:04:53.950Z,101869.00
2023-10-10T07:07:21.684Z,101872.00
2023-10-10T07:09:49.078Z,101870.00
2023-10-10T07:12:17.534Z,101865.00
2023-10-10T07:14:45.354Z,101871.00
2023-10-10T07:17:13.527Z,101865.00
2023-10-10T07:20:00.292Z,101863.00
2023-10-10T07:22:28.686Z,101864.00
2023-10-10T07:24:57.039Z,101861.00
2023-10-10T07:27:31.482Z,101861.00
2023-10-10T07:29:59.027Z,101856.00
2023-10-10T07:32:31.590Z,101855.00
2023-10-10T07:35:00.328Z,101869.00
2023-10-10T07:37:30.644Z,101869.00
2023-10-10T07:39:58.294Z,101860.00
2023-10-10T07:42:28.814Z,101871.00
2023-10-10T07:44:56.118Z,101858.00
2023-10-10T07:47:27.981Z,101861.00
2023-10-10T07:50:00.866Z,101864.00
2023-10-10T07:52:27.834Z,101860.00
2023-10-10T07:55:04.798Z,101865.00
2023-10-10T07:57:51.523Z,101871.00
2023-10-10T08:00:18.985Z,101862.00
2023-10-10T08:02:51.273Z,101860.00
2023-10-10T08:05:21.257Z,101862.00
2023-10-10T08:07:48.885Z,101859.00
2023-10-10T08:10:30.587Z,101872.00
2023-10-10T08:12:58.440Z,101873.00
2023-10-10T08:15:27.893Z,101875.00
2023-10-10T08:17:56.798Z,101873.00
2023-10-10T08:20:43.891Z,101879.00
2023-10-10T08:23:10.708Z,101876.00
2023-10-10T08:25:40.455Z,101875.00
2023-10-10T08:28:07.211Z,101877.00
2023-10-10T08:30:34.547Z,101884.00
2023-10-10T08:33:05.532Z,101878.00
2023-10-10T08:35:40.148Z,101889.00
2023-10-10T08:38:07.577Z,101886.00
2023-10-10T08:40:37.997Z,101891.00
2023-10-10T08:43:05.386Z,101888.00
2023-10-10T08:45:41.593Z,101890.00
2023-10-10T08:48:16.932Z,101891.00
2023-10-10T08:50:48.227Z,101882.00
2023-10-10T08:53:15.538Z,101891.00
2023-10-10T08:55:42.640Z,101884.00
2023-10-10T08:58:09.865Z,101885.00
2023-10-10T09:00:38.907Z,101889.00
2023-10-10T09:03:09.153Z,101886.00
2023-10-10T09:05:37.499Z,101882.00
2023-10-10T09:08:17.607Z,101875.00
2023-10-10T09:10:45.176Z,101879.00
2023-10-10T09:13:11.866Z,101885.00
2023-10-10T09:15:42.194Z,101884.00
2023-10-10T09:18:27.899Z,101888.00
2023-10-10T09:21:19.790Z,101885.00
2023-10-10T09:24:06.800Z,101881.00
2023-10-10T09:26:37.627Z,101885.00
2023-10-10T09:29:16.686Z,101879.00
2023-10-10T09:31:48.892Z,101876.00
2023-10-10T09:34:23.737Z,101881.00
2023-10-10T09:36:57.553Z,101857.00
2023-10-10T09:39:38.636Z,101854.00
2023-10-10T09:42:44.577Z,101861.00
2023-10-10T09:45:36.844Z,101855.00
2023-10-10T09:48:18.226Z,101861.00
2023-10-10T09:51:08.659Z,101869.00
2023-10-10T09:53:35.974Z,101865.00
2023-10-10T09:56:09.505Z,101865.00
2023-10-10T09:58:43.659Z,101862.00
2023-10-10T10:01:16.148Z,101865.00
2023-10-10T10:04:04.142Z,101881.00
2023-10-10T10:07:07.212Z,101875.00
2023-10-10T10:09:57.208Z,101865.00
2023-10-10T10:12:35.515Z,101872.00
2023-10-10T10:15:25.577Z,101873.00
2023-10-10T10:18:26.960Z,101862.00
2023-10-10T10:21:24.980Z,101869.00
2023-10-10T10:24:16.406Z,101862.00
2023-10-10T10:26:44.530Z,101865.00
2023-10-10T10:29:29.465Z,101865.00
2023-10-10T10:32:00.831Z,101865.00
2023-10-10T10:34:31.898Z,101862.00
2023-10-10T10:37:21.551Z,101856.00
2023-10-10T10:40:09.119Z,101854.00
2023-10-10T10:42:39.304Z,101850.00
2023-10-10T10:45:27.158Z,101852.00
2023-10-10T10:48:01.206Z,101848.00
2023-10-10T10:50:31.045Z,101842.00
2023-10-10T10:53:07.310Z,101844.00
2023-10-10T10:55:41.059Z,101833.00
2023-10-10T10:58:20.365Z,101835.00
2023-10-10T11:01:00.128Z,101823.00
2023-10-10T11:03:38.068Z,101826.00
2023-10-10T11:06:15.777Z,101827.00
2023-10-10T11:08:57.482Z,101826.00
2023-10-10T11:11:31.610Z,101823.00
2023-10-10T11:14:02.193Z,101826.00
2023-10-10T11:16:38.615Z,101824.00
2023-10-10T11:19:25.892Z,101818.00
2023-10-10T11:22:03.572Z,101815.00
2023-10-10T11:24:32.856Z,101818.00
2023-10-10T11:27:15.339Z,101814.00
2023-10-10T11:29:50.339Z,101823.00
2023-10-10T11:32:25.761Z,101810.00
2023-10-10T11:34:57.435Z,101805.00
2023-10-10T11:37:32.548Z,101813.00
2023-10-10T11:40:28.880Z,101808.00
2023-10-10T11:43:00.978Z,101809.00
2023-10-10T11:45:29.319Z,101807.00
2023-10-10T11:48:02.478Z,101804.00
2023-10-10T11:50:49.753Z,101799.00
2023-10-10T11:53:24.818Z,101789.00
2023-10-10T11:55:56.134Z,101785.00
2023-10-10T11:58:37.246Z,101773.00
2023-10-10T12:01:07.124Z,101776.00
2023-10-10T12:03:41.853Z,101773.00
2023-10-10T12:06:18.653Z,101770.00
2023-10-10T12:08:48.622Z,101764.00
2023-10-10T12:11:23.416Z,101762.00
2023-10-10T12:13:52.238Z,101756.00
2023-10-10T12:16:25.366Z,101757.00
2023-10-10T12:18:54.576Z,101756.00
2023-10-10T12:21:23.167Z,101758.00
2023-10-10T12:24:00.570Z,101759.00
2023-10-10T12:26:28.564Z,101753.00
2023-10-10T12:28:55.384Z,101745.00
2023-10-10T12:31:23.453Z,101750.00
2023-10-10T12:33:51.274Z,101749.00
2023-10-10T12:36:18.956Z,101742.00
2023-10-10T12:38:46.414Z,101736.00
2023-10-10T12:41:13.444Z,101727.00
2023-10-10T12:43:40.374Z,101732.00
2023-10-10T12:46:11.114Z,101736.00
2023-10-10T12:48:41.438Z,101725.00
2023-10-10T12:51:11.884Z,101725.00
2023-10-10T12:53:45.151Z,101727.00
2023-10-10T12:56:23.018Z,101725.00
2023-10-10T12:59:05.210Z,101722.00
2023-10-10T13:01:38.148Z,101727.00
2023-10-10T13:04:09.240Z,101712.00
2023-10-10T13:06:41.071Z,101711.00
2023-10-10T13:09:09.896Z,101723.00
2023-10-10T13:11:57.588Z,101717.00
2023-10-10T13:14:31.165Z,101723.00
2023-10-10T13:17:19.066Z,101717.00
2023-10-10T13:19:47.850Z,101711.00
2023-10-10T13:22:21.954Z,101714.00
2023-10-10T13:24:54.805Z,101701.00
2023-10-10T13:27:22.765Z,101706.00
2023-10-10T13:29:49.496Z,101710.00
2023-10-10T13:32:16.203Z,101705.00
2023-10-10T13:34:45.188Z,101690.00
2023-10-10T13:37:12.611Z,101697.00
2023-10-10T13:39:45.232Z,101689.00
2023-10-10T13:42:15.871Z,101692.00
2023-10-10T13:44:43.744Z,101687.00
2023-10-10T13:47:12.103Z,101685.00
2023-10-10T13:49:45.872Z,101680.00
2023-10-10T13:52:14.478Z,101680.00
2023-10-10T13:54:41.382Z,101672.00
2023-10-10T13:57:08.977Z,101665.00
2023-10-10T13:59:35.960Z,101679.00
2023-10-10T14:02:05.740Z,101678.00
2023-10-10T14:04:47.660Z,101676.00
2023-10-10T14:07:18.008Z,101671.00
2023-10-10T14:10:01.653Z,101672.00
2023-10-10T14:12:33.557Z,101669.00
2023-10-10T14:15:01.105Z,101662.00
2023-10-10T14:17:34.181Z,101665.00
2023-10-10T14:20:01.077Z,101666.00
2023-10-10T14:22:32.187Z,101659.00
2023-10-10T14:25:04.989Z,101656.00
2023-10-10T14:27:31.870Z,101658.00
2023-10-10T14:29:59.177Z,101656.00
2023-10-10T14:32:38.963Z,101653.00
2023-10-10T14:35:07.101Z,101652.00
2023-10-10T14:37:50.014Z,101656.00
2023-10-10T14:40:20.932Z,101650.00
2023-10-10T14:42:47.656Z,101651.00
2023-10-10T14:45:14.574Z,101651.00
2023-10-10T14:47:45.174Z,101652.00
2023-10-10T14:50:14.195Z,101647.00
2023-10-10T14:52:48.693Z,101642.00
2023-10-10T14:55:25.566Z,101637.00
2023-10-10T14:57:57.060Z,101629.00
2023-10-10T15:00:30.570Z,101620.00
2023-10-10T15:02:59.885Z,101622.00
2023-10-10T15:05:27.609Z,101626.00
2023-10-10T15:07:55.152Z,101627.00
2023-10-10T15:10:27.369Z,101617.00
2023-10-10T15:12:55.188Z,101612.00
2023-10-10T15:15:24.051Z,101609.00
2023-10-10T15:17:51.700Z,101613.00
2023-10-10T15:20:18.718Z,101607.00
2023-10-10T15:22:45.551Z,101606.00
2023-10-10T15:25:12.297Z,101604.00
2023-10-10T15:27:42.138Z,101603.00
2023-10-10T15:30:10.117Z,101602.00
2023-10-10T15:32:47.775Z,101602.00
2023-10-10T15:35:16.783Z,101606.00
2023-10-10T15:37:44.043Z,101606.00
2023-10-10T15:40:22.240Z,101602.00
2023-10-10T15:42:53.296Z,101622.00
2023-10-10T15:45:23.388Z,101620.00
2023-10-10T15:47:54.284Z,101616.00
2023-10-10T15:50:22.866Z,101630.00
2023-10-10T15:52:55.588Z,101614.00
2023-10-10T15:55:25.265Z,101625.00
2023-10-10T15:57:53.928Z,101616.00
2023-10-10T16:00:22.817Z,101608.00
2023-10-10T16:02:55.151Z,101608.00
2023-10-10T16:05:24.182Z,101619.00
2023-10-10T16:08:06.399Z,101620.00
2023-10-10T16:10:39.579Z,101607.00
2023-10-10T16:13:11.827Z,101607.00
2023-10-10T16:15:38.725Z,101614.00
2023-10-10T16:18:06.116Z,101612.00
2023-10-10T16:20:36.891Z,101603.00
2023-10-10T16:23:04.413Z,101612.00
2023-10-10T16:25:31.086Z,101609.00
2023-10-10T16:27:59.188Z,101619.00
2023-10-10T16:30:28.786Z,101618.00
2023-10-10T16:32:57.075Z,101614.00
2023-10-10T16:35:24.066Z,101621.00
2023-10-10T16:37:50.939Z,101629.00
2023-10-10T16:40:18.732Z,101622.00
2023-10-10T16:42:46.868Z,101618.00
2023-10-10T16:45:13.705Z,101616.00
2023-10-10T16:47:43.924Z,101609.00
2023-10-10T16:50:11.109Z,101614.00
2023-10-10T16:52:41.803Z,101617.00
2023-10-10T16:55:12.727Z,101604.00
2023-10-10T16:57:39.544Z,101612.00
2023-10-10T17:00:19.084Z,101606.00
2023-10-10T17:02:47.318Z,101606.00
2023-10-10T17:05:14.307Z,101595.00
2023-10-10T17:07:41.917Z,101602.00
2023-10-10T17:10:15.261Z,101604.00
2023-10-10T17:12:52.258Z,101607.00
2023-10-10T17:15:39.630Z,101614.00
2023-10-10T17:18:14.863Z,101607.00
2023-10-10T17:20:44.285Z,101612.00
2023-10-10T17:23:14.388Z,101599.00
2023-10-10T17:25:41.593Z,101600.00
2023-10-10T17:28:08.354Z,101598.00
2023-10-10T17:30:35.031Z,101596.00
2023-10-10T17:33:04.030Z,101596.00
2023-10-10T17:35:33.941Z,101592.00
2023-10-10T17:38:00.737Z,101598.00
2023-10-10T17:40:27.551Z,101602.00
2023-10-10T17:42:54.255Z,101605.00
2023-10-10T17:45:21.050Z,101614.00
2023-10-10T17:47:48.054Z,101618.00
2023-10-10T17:50:18.339Z,101622.00
2023-10-10T17:52:45.343Z,101631.00
2023-10-10T17:55:13.930Z,101623.00
2023-10-10T17:57:43.219Z,101627.00
2023-10-10T18:00:15.545Z,101627.00
2023-10-10T18:02:46.469Z,101623.00
2023-10-10T18:05:16.207Z,101607.00
2023-10-10T18:07:45.344Z,101620.00
2023-10-10T18:10:14.198Z,101618.00
2023-10-10T18:12:42.095Z,101624.00
2023-10-10T18:15:11.459Z,101628.00
2023-10-10T18:17:39.745Z,101636.00
2023-10-10T18:20:15.768Z,101629.00
2023-10-10T18:22:47.056Z,101627.00
2023-10-10T18:25:14.640Z,101626.00
2023-10-10T18:27:43.000Z,101626.00
2023-10-10T18:30:10.425Z,101635.00
2023-10-10T18:32:37.329Z,101634.00
2023-10-10T18:35:04.374Z,101640.00
2023-10-10T18:37:31.041Z,101631.00
2023-10-10T18:39:57.726Z,101637.00
2023-10-10T18:42:24.411Z,101625.00
2023-10-10T18:44:51.180Z,101632.00
2023-10-10T18:47:17.924Z,101631.00
2023-10-10T18:49:45.756Z,101634.00
2023-10-10T18:52:13.536Z,101636.00
2023-10-10T18:54:42.894Z,101631.00
2023-10-10T18:57:10.622Z,101627.00
2023-10-10T18:59:37.277Z,101635.00
2023-10-10T19:02:04.131Z,101638.00
2023-10-10T19:04:31.163Z,101631.00
2023-10-10T19:06:57.947Z,101639.00
2023-10-10T19:09:24.801Z,101643.00
2023-10-10T19:11:52.617Z,101642.00
2023-10-10T19:14:19.501Z,101641.00
2023-10-10T19:16:47.754Z,101641.00
2023-10-10T19:19:15.225Z,101642.00
2023-10-10T19:21:43.168Z,101639.00
2023-10-10T19:24:10.502Z,101644.00
2023-10-10T19:26:37.616Z,101643.00
2023-10-10T19:29:05.433Z,101636.00
2023-10-10T19:31:40.046Z,101631.00
2023-10-10T19:34:10.818Z,101639.00
2023-10-10T19:36:37.839Z,101638.00
2023-10-10T19:39:11.598Z,101640.00
2023-10-10T19:41:39.014Z,101637.00
2023-10-10T19:44:07.511Z,101633.00
2023-10-10T19:46:34.349Z,101635.00
2023-10-10T19:49:02.201Z,101639.00
2023-10-10T19:51:29.066Z,101639.00
2023-10-10T19:53:55.821Z,101640.00
2023-10-10T19:56:22.667Z,101639.00
2023-10-10T19:58:50.001Z,101643.00
2023-10-10T20:01:17.199Z,101643.00
2023-10-10T20:03:47.211Z,101634.00
2023-10-10T20:06:21.701Z,101631.00
2023-10-10T20:08:50.520Z,101630.00
2023-10-10T20:11:17.763Z,101636.00
2023-10-10T20:13:46.580Z,101640.00
2023-10-10T20:16:18.019Z,101644.00
2023-10-10T20:18:45.577Z,101642.00
2023-10-10T20:21:17.705Z,101652.00
2023-10-10T20:23:44.897Z,101645.00
2023-10-10T20:26:18.444Z,101648.00
2023-10-10T20:28:46.132Z,101655.00
2023-10-10T20:31:14.264Z,101655.00
2023-10-10T20:33:41.240Z,101643.00
2023-10-10T20:36:10.957Z,101649.00
2023-10-10T20:38:43.916Z,101640.00
2023-10-10T20:41:12.595Z,101637.00
2023-10-10T20:43:41.369Z,101627.00
2023-10-10T20:46:08.288Z,101627.00
2023-10-10T20:48:35.229Z,101624.00
2023-10-10T20:51:05.116Z,101618.00
2023-10-10T20:53:33.558Z,101613.00
2023-10-10T20:56:03.184Z,101612.00
2023-10-10T20:58:30.329Z,101619.00
2023-10-10T21:00:57.239Z,101602.00
2023-10-10T21:03:24.484Z,101609.00
2023-10-10T21:05:51.407Z,101626.00
2023-10-10T21:08:18.711Z,101627.00
2023-10-10T21:10:46.068Z,101615.00
2023-10-10T21:13:14.396Z,101607.00
2023-10-10T21:15:42.680Z,101614.00
2023-10-10T21:18:10.185Z,101616.00
2023-10-10T21:20:51.997Z,101617.00
2023-10-10T21:23:26.593Z,101616.00
2023-10-10T21:25:54.448Z,101626.00
2023-10-10T21:28:23.012Z,101608.00
2023-10-10T21:30:49.750Z,101617.00
2023-10-10T21:33:16.635Z,101617.00
2023-10-10T21:35:45.765Z,101614.00
2023-10-10T21:38:12.770Z,101622.00
2023-10-10T21:40:41.332Z,101616.00
2023-10-10T21:43:08.358Z,101622.00
2023-10-10T21:45:37.904Z,101617.00
2023-10-10T21:48:05.938Z,101614.00
2023-10-10T21:50:33.466Z,101608.00
2023-10-10T21:53:01.490Z,101606.00
2023-10-10T21:55:28.976Z,101599.00
2023-10-10T21:57:59.112Z,101596.00
2023-10-10T22:00:32.686Z,101595.00
2023-10-10T22:03:05.909Z,101603.00
2023-10-10T22:05:34.210Z,101613.00
2023-10-10T22:08:02.237Z,101603.00
2023-10-10T22:10:33.774Z,101601.00
2023-10-10T22:13:07.872Z,101601.00
2023-10-10T22:15:36.918Z,101596.00
2023-10-10T22:18:05.900Z,101592.00
2023-10-10T22:20:36.505Z,101597.00
2023-10-10T22:23:05.852Z,101606.00
2023-10-10T22:25:35.363Z,101600.00
2023-10-10T22:28:05.553Z,101597.00
2023-10-10T22:30:39.525Z,101597.00
2023-10-10T22:33:11.849Z,101595.00
2023-10-10T22:35:39.578Z,101588.00
2023-10-10T22:38:07.159Z,101594.00
2023-10-10T22:40:34.790Z,101584.00
2023-10-10T22:43:03.412Z,101587.00
2023-10-10T22:45:34.346Z,101589.00
2023-10-10T22:48:03.123Z,101591.00
2023-10-10T22:50:33.615Z,101585.00
2023-10-10T22:53:04.762Z,101582.00
2023-10-10T22:55:36.335Z,101576.00
2023-10-10T22:58:09.119Z,101574.00
2023-10-10T23:00:39.709Z,101569.00
2023-10-10T23:03:14.532Z,101565.00
2023-10-10T23:05:44.264Z,101568.00
2023-10-10T23:08:12.253Z,101562.00
2023-10-10T23:10:42.322Z,101558.00
2023-10-10T23:13:09.180Z,101552.00
2023-10-10T23:15:38.508Z,101553.00
2023-10-10T23:18:12.127Z,101546.00
2023-10-10T23:20:42.532Z,101550.00
2023-10-10T23:23:11.473Z,101551.00
2023-10-10T23:25:38.512Z,101550.00
2023-10-10T23:28:05.298Z,101539.00
2023-10-10T23:30:34.425Z,101547.00
2023-10-10T23:33:04.554Z,101551.00
2023-10-10T23:35:31.739Z,101549.00
2023-10-10T23:38:07.036Z,101554.00
2023-10-10T23:40:41.727Z,101546.00
2023-10-10T23:43:10.073Z,101550.00
2023-10-10T23:45:43.656Z,101539.00
2023-10-10T23:48:17.948Z,101545.00
2023-10-10T23:50:46.088Z,101537.00
2023-10-10T23:53:16.382Z,101540.00
2023-10-10T23:55:46.830Z,101539.00
2023-10-10T23:58:14.034Z,101541.00
